createdAt,value
2019-06-08T00:00:15.238Z,73.49
2019-06-08T00:02:45.745Z,73.24
2019-06-08T00:05:14.835Z,72.99
2019-06-08T00:07:43.414Z,72.42
2019-06-08T00:10:12.725Z,73.33
2019-06-08T00:12:41.232Z,72.46
2019-06-08T00:15:10.198Z,72.64
2019-06-08T00:17:39.385Z,73.66
2019-06-08T00:20:08.338Z,72.57
2019-06-08T00:22:36.808Z,71.65
2019-06-08T00:25:06.803Z,73.04
2019-06-08T00:27:35.313Z,72.40
2019-06-08T00:30:06.128Z,73.42
2019-06-08T00:32:33.997Z,72.54
2019-06-08T00:35:04.581Z,72.65
2019-06-08T00:37:33.023Z,73.79
2019-06-08T00:40:01.518Z,72.70
2019-06-08T00:42:29.988Z,72.78
2019-06-08T00:44:58.511Z,72.18
2019-06-08T00:47:44.974Z,71.64
2019-06-08T00:49:57.150Z,72.12
2019-06-08T00:52:25.662Z,71.71
2019-06-08T00:54:54.139Z,71.81
2019-06-08T00:57:23.853Z,72.48
2019-06-08T00:59:52.466Z,72.57
2019-06-08T01:02:20.970Z,72.33
2019-06-08T01:04:49.470Z,70.91
2019-06-08T01:07:18.036Z,72.53
2019-06-08T01:09:50.816Z,71.50
2019-06-08T01:12:20.502Z,71.30
2019-06-08T01:14:49.773Z,70.36
2019-06-08T01:17:19.273Z,70.34
2019-06-08T01:19:47.820Z,69.96
2019-06-08T01:22:16.296Z,69.62
2019-06-08T01:24:44.749Z,70.49
2019-06-08T01:27:13.183Z,70.55
2019-06-08T01:29:44.713Z,72.02
2019-06-08T01:32:13.159Z,70.71
2019-06-08T01:34:41.601Z,70.90
2019-06-08T01:37:10.031Z,71.65
2019-06-08T01:39:38.527Z,71.09
2019-06-08T01:42:10.619Z,71.84
2019-06-08T01:44:38.984Z,72.19
2019-06-08T01:47:07.412Z,71.81
2019-06-08T01:49:35.835Z,72.07
2019-06-08T01:52:04.284Z,71.61
2019-06-08T01:54:33.336Z,71.65
2019-06-08T01:57:01.857Z,71.70
2019-06-08T01:59:32.556Z,71.54
2019-06-08T02:02:08.520Z,70.52
2019-06-08T02:04:37.050Z,72.95
2019-06-08T02:07:05.616Z,71.99
2019-06-08T02:09:34.884Z,71.42
2019-06-08T02:12:03.425Z,71.49
2019-06-08T02:14:33.168Z,70.10
2019-06-08T02:17:01.739Z,70.52
2019-06-08T02:19:30.556Z,70.17
2019-06-08T02:21:59.121Z,69.99
2019-06-08T02:24:27.568Z,70.00
2019-06-08T02:26:56.035Z,70.81
2019-06-08T02:29:24.518Z,70.90
2019-06-08T02:31:53.020Z,69.48
2019-06-08T02:34:21.480Z,69.58
2019-06-08T02:36:50.004Z,70.24
2019-06-08T02:39:18.455Z,70.96
2019-06-08T02:41:46.905Z,71.59
2019-06-08T02:44:15.441Z,71.60
2019-06-08T02:46:43.991Z,72.65
2019-06-08T02:49:12.466Z,71.68
2019-06-08T02:51:41.257Z,73.43
2019-06-08T02:54:10.543Z,73.02
2019-06-08T02:56:41.588Z,72.43
2019-06-08T02:59:13.107Z,72.57
2019-06-08T03:01:43.116Z,72.53
2019-06-08T03:04:12.980Z,73.36
2019-06-08T03:06:43.593Z,71.89
2019-06-08T03:09:12.143Z,72.82
2019-06-08T03:11:44.554Z,73.66
2019-06-08T03:14:13.651Z,73.43
2019-06-08T03:16:43.305Z,73.22
2019-06-08T03:19:21.569Z,73.78
2019-06-08T03:21:44.518Z,73.42
2019-06-08T03:24:13.005Z,73.42
2019-06-08T03:26:43.884Z,73.64
2019-06-08T03:29:11.713Z,74.06
2019-06-08T03:31:49.692Z,73.59
2019-06-08T03:34:10.425Z,73.48
2019-06-08T03:36:46.382Z,73.64
2019-06-08T03:39:11.776Z,72.91
2019-06-08T03:41:40.480Z,72.13
2019-06-08T03:44:09.285Z,72.38
2019-06-08T03:46:38.813Z,73.60
2019-06-08T03:49:10.440Z,73.12
2019-06-08T03:51:43.549Z,72.55
2019-06-08T03:54:09.187Z,72.43
2019-06-08T03:56:38.049Z,72.84
2019-06-08T03:59:10.902Z,71.66
2019-06-08T04:01:39.744Z,71.26
2019-06-08T04:04:10.185Z,71.34
2019-06-08T04:06:39.873Z,70.28
2019-06-08T04:09:08.776Z,71.18
2019-06-08T04:11:37.735Z,70.51
2019-06-08T04:14:06.416Z,69.50
2019-06-08T04:16:34.946Z,69.37
2019-06-08T04:19:04.180Z,69.57
2019-06-08T04:21:32.654Z,70.44
2019-06-08T04:24:01.135Z,70.24
2019-06-08T04:26:29.693Z,69.19
2019-06-08T04:28:58.212Z,69.23
2019-06-08T04:31:26.708Z,69.44
2019-06-08T04:33:55.222Z,68.38
2019-06-08T04:36:23.670Z,69.92
2019-06-08T04:38:54.900Z,68.58
2019-06-08T04:41:23.451Z,70.13
2019-06-08T04:43:51.968Z,68.51
2019-06-08T04:46:20.550Z,70.16
2019-06-08T04:48:50.032Z,69.02
2019-06-08T04:51:21.507Z,66.41
2019-06-08T04:53:50.065Z,66.58
2019-06-08T04:56:20.192Z,65.11
2019-06-08T04:58:51.045Z,65.48
2019-06-08T05:01:18.918Z,65.45
2019-06-08T05:03:53.881Z,64.43
2019-06-08T05:06:21.562Z,63.53
2019-06-08T05:08:50.041Z,64.67
2019-06-08T05:11:20.064Z,64.08
2019-06-08T05:13:49.732Z,63.23
2019-06-08T05:16:18.475Z,64.48
2019-06-08T05:18:47.407Z,63.01
2019-06-08T05:21:15.992Z,64.38
2019-06-08T05:23:45.555Z,63.64
2019-06-08T05:26:14.415Z,63.26
2019-06-08T05:28:43.196Z,64.50
2019-06-08T05:31:11.668Z,63.04
2019-06-08T05:33:41.315Z,63.71
2019-06-08T05:36:10.082Z,60.99
2019-06-08T05:38:39.453Z,60.36
2019-06-08T05:41:08.025Z,58.25
2019-06-08T05:43:39.452Z,60.25
2019-06-08T05:46:12.932Z,58.21
2019-06-08T05:48:41.882Z,58.19
2019-06-08T05:51:10.624Z,56.45
2019-06-08T05:53:39.682Z,56.21
2019-06-08T05:56:08.323Z,57.23
2019-06-08T05:58:39.881Z,57.10
2019-06-08T06:01:08.337Z,55.98
2019-06-08T06:03:38.468Z,55.78
2019-06-08T06:06:07.143Z,57.49
2019-06-08T06:08:36.721Z,54.57
2019-06-08T06:11:05.277Z,57.33
2019-06-08T06:13:33.742Z,55.27
2019-06-08T06:16:02.240Z,56.43
2019-06-08T06:18:30.812Z,57.17
2019-06-08T06:21:10.312Z,56.60
2019-06-08T06:23:35.122Z,55.94
2019-06-08T06:26:03.667Z,59.60
2019-06-08T06:28:33.665Z,55.64
2019-06-08T06:31:02.749Z,58.16
2019-06-08T06:33:31.756Z,57.15
2019-06-08T06:36:01.683Z,56.68
2019-06-08T06:38:30.257Z,55.48
2019-06-08T06:40:59.307Z,56.20
2019-06-08T06:43:27.774Z,57.37
2019-06-08T06:45:59.800Z,56.23
2019-06-08T06:48:28.464Z,54.90
2019-06-08T06:50:57.435Z,54.71
2019-06-08T06:53:28.471Z,55.08
2019-06-08T06:55:56.862Z,55.97
2019-06-08T06:58:25.398Z,54.38
2019-06-08T07:00:53.906Z,53.73
2019-06-08T07:03:22.719Z,55.24
2019-06-08T07:05:54.413Z,55.24
2019-06-08T07:08:22.923Z,54.32
2019-06-08T07:10:51.465Z,52.40
2019-06-08T07:13:21.597Z,53.47
2019-06-08T07:15:55.915Z,52.43
2019-06-08T07:18:24.217Z,52.30
2019-06-08T07:20:52.703Z,51.78
2019-06-08T07:23:21.183Z,50.74
2019-06-08T07:25:50.432Z,49.81
2019-06-08T07:28:21.959Z,51.11
2019-06-08T07:30:52.777Z,51.00
2019-06-08T07:33:21.378Z,52.36
2019-06-08T07:35:50.440Z,51.33
2019-06-08T07:38:20.009Z,49.71
2019-06-08T07:40:50.328Z,49.10
2019-06-08T07:43:20.394Z,49.36
2019-06-08T07:45:51.914Z,49.60
2019-06-08T07:48:22.064Z,50.83
2019-06-08T07:50:54.339Z,49.25
2019-06-08T07:53:24.393Z,50.05
2019-06-08T07:55:53.493Z,51.39
2019-06-08T07:58:26.309Z,49.80
2019-06-08T08:00:59.441Z,49.24
2019-06-08T08:03:27.031Z,50.34
2019-06-08T08:05:56.608Z,49.88
2019-06-08T08:08:25.362Z,49.09
2019-06-08T08:10:54.593Z,51.08
2019-06-08T08:13:26.051Z,51.41
2019-06-08T08:15:57.358Z,49.78
2019-06-08T08:18:24.874Z,50.23
2019-06-08T08:21:00.983Z,50.93
2019-06-08T08:23:27.845Z,51.23
2019-06-08T08:26:01.693Z,51.17
2019-06-08T08:28:31.284Z,51.96
2019-06-08T08:31:01.795Z,51.58
2019-06-08T08:33:30.840Z,51.28
2019-06-08T08:36:01.713Z,50.64
2019-06-08T08:38:29.574Z,51.28
2019-06-08T08:41:06.235Z,50.93
2019-06-08T08:43:37.683Z,51.87
2019-06-08T08:46:09.269Z,50.90
2019-06-08T08:48:38.155Z,51.37
2019-06-08T08:51:08.658Z,50.97
2019-06-08T08:53:53.818Z,50.27
2019-06-08T08:56:20.119Z,49.93
2019-06-08T08:58:48.695Z,49.80
2019-06-08T09:01:20.599Z,49.57
2019-06-08T09:03:51.848Z,49.08
2019-06-08T09:06:20.209Z,50.21
2019-06-08T09:08:52.041Z,50.49
2019-06-08T09:11:22.162Z,50.85
2019-06-08T09:13:51.952Z,50.61
2019-06-08T09:16:20.787Z,51.32
2019-06-08T09:18:49.337Z,51.17
2019-06-08T09:21:18.679Z,50.83
2019-06-08T09:23:48.745Z,50.52
2019-06-08T09:26:20.029Z,50.09
2019-06-08T09:28:48.583Z,49.33
2019-06-08T09:31:18.851Z,49.93
2019-06-08T09:33:58.153Z,48.58
2019-06-08T09:36:19.660Z,48.65
2019-06-08T09:38:48.241Z,49.35
2019-06-08T09:41:18.676Z,49.56
2019-06-08T09:43:48.738Z,50.09
2019-06-08T09:46:17.937Z,51.31
2019-06-08T09:48:48.640Z,50.73
2019-06-08T09:51:18.663Z,49.48
2019-06-08T09:53:47.673Z,49.91
2019-06-08T09:56:18.602Z,50.26
2019-06-08T09:58:51.154Z,50.79
2019-06-08T10:01:18.419Z,51.31
2019-06-08T10:03:48.210Z,51.12
2019-06-08T10:06:18.449Z,50.67
2019-06-08T10:08:48.054Z,50.73
2019-06-08T10:11:18.342Z,49.96
2019-06-08T10:13:47.778Z,50.56
2019-06-08T10:16:18.358Z,50.27
2019-06-08T10:18:51.130Z,50.42
2019-06-08T10:21:18.299Z,51.83
2019-06-08T10:23:48.368Z,50.91
2019-06-08T10:26:17.849Z,51.63
2019-06-08T10:28:48.226Z,51.05
2019-06-08T10:31:17.611Z,51.12
2019-06-08T10:33:48.204Z,51.44
2019-06-08T10:36:18.296Z,50.54
2019-06-08T10:38:48.019Z,50.02
2019-06-08T10:41:21.085Z,50.02
2019-06-08T10:43:48.192Z,49.47
2019-06-08T10:46:21.069Z,49.74
2019-06-08T10:48:55.682Z,49.18
2019-06-08T10:51:24.172Z,50.24
2019-06-08T10:53:54.227Z,50.10
2019-06-08T10:56:28.401Z,48.76
2019-06-08T10:58:57.358Z,49.33
2019-06-08T11:01:28.246Z,48.59
2019-06-08T11:03:58.418Z,48.79
2019-06-08T11:06:39.930Z,48.94
2019-06-08T11:09:12.674Z,48.40
2019-06-08T11:11:41.485Z,46.97
2019-06-08T11:14:12.760Z,48.24
2019-06-08T11:16:40.076Z,47.99
2019-06-08T11:19:12.875Z,47.97
2019-06-08T11:21:43.785Z,48.14
2019-06-08T11:24:23.747Z,46.95
2019-06-08T11:26:44.383Z,48.01
2019-06-08T11:29:13.926Z,46.93
2019-06-08T11:31:43.772Z,47.63
2019-06-08T11:34:12.265Z,48.16
2019-06-08T11:36:43.035Z,47.74
2019-06-08T11:39:12.715Z,48.08
2019-06-08T11:41:40.905Z,48.78
2019-06-08T11:44:14.913Z,48.89
2019-06-08T11:46:44.698Z,48.00
2019-06-08T11:49:15.006Z,46.30
2019-06-08T11:51:43.385Z,46.50
2019-06-08T11:54:27.341Z,43.96
2019-06-08T11:56:45.216Z,45.70
2019-06-08T11:59:14.575Z,44.78
2019-06-08T12:01:44.643Z,46.85
2019-06-08T12:04:13.192Z,45.07
2019-06-08T12:06:42.796Z,45.08
2019-06-08T12:09:12.746Z,45.91
2019-06-08T12:11:44.218Z,44.53
2019-06-08T12:14:14.230Z,45.13
2019-06-08T12:16:44.382Z,47.21
2019-06-08T12:19:16.646Z,45.82
2019-06-08T12:21:43.137Z,45.12
2019-06-08T12:24:12.368Z,44.84
2019-06-08T12:26:41.144Z,45.09
2019-06-08T12:29:12.770Z,45.99
2019-06-08T12:31:40.367Z,45.63
2019-06-08T12:34:09.241Z,46.46
2019-06-08T12:36:40.148Z,47.99
2019-06-08T12:39:08.076Z,46.15
2019-06-08T12:41:37.740Z,45.20
2019-06-08T12:44:11.757Z,45.55
2019-06-08T12:46:41.360Z,44.76
2019-06-08T12:49:14.680Z,45.64
2019-06-08T12:51:50.642Z,45.10
2019-06-08T12:54:19.339Z,45.26
2019-06-08T12:56:47.977Z,44.34
2019-06-08T12:59:20.880Z,45.26
2019-06-08T13:01:48.455Z,45.93
2019-06-08T13:04:18.776Z,45.29
2019-06-08T13:06:50.041Z,46.23
2019-06-08T13:09:20.657Z,45.58
2019-06-08T13:11:50.730Z,47.24
2019-06-08T13:14:20.652Z,45.20
2019-06-08T13:16:52.973Z,47.68
2019-06-08T13:19:20.450Z,47.79
2019-06-08T13:21:48.961Z,48.30
2019-06-08T13:24:17.655Z,46.65
2019-06-08T13:26:50.436Z,47.85
2019-06-08T13:29:22.504Z,46.82
2019-06-08T13:31:51.964Z,46.02
2019-06-08T13:34:23.942Z,45.99
2019-06-08T13:36:50.743Z,46.37
2019-06-08T13:39:21.673Z,45.88
2019-06-08T13:41:52.579Z,46.32
2019-06-08T13:44:22.131Z,46.41
2019-06-08T13:46:55.011Z,45.86
2019-06-08T13:49:29.741Z,44.78
2019-06-08T13:51:59.949Z,44.21
2019-06-08T13:54:31.225Z,45.04
2019-06-08T13:56:59.682Z,44.74
2019-06-08T13:59:30.757Z,44.87
2019-06-08T14:01:58.837Z,44.85
2019-06-08T14:04:27.356Z,43.82
2019-06-08T14:06:58.211Z,42.96
2019-06-08T14:09:31.478Z,43.56
2019-06-08T14:11:58.896Z,43.31
2019-06-08T14:14:29.697Z,42.77
2019-06-08T14:17:01.166Z,42.93
2019-06-08T14:19:31.569Z,42.67
2019-06-08T14:21:59.801Z,44.58
2019-06-08T14:24:34.118Z,42.85
2019-06-08T14:27:00.859Z,41.89
2019-06-08T14:29:29.290Z,43.42
2019-06-08T14:31:58.775Z,43.31
2019-06-08T14:34:31.256Z,43.33
2019-06-08T14:36:59.890Z,44.14
2019-06-08T14:39:32.905Z,43.57
2019-06-08T14:42:01.478Z,43.66
2019-06-08T14:44:32.017Z,42.78
2019-06-08T14:47:01.767Z,43.15
2019-06-08T14:49:34.858Z,43.80
2019-06-08T14:52:01.944Z,43.55
2019-06-08T14:54:34.983Z,44.42
2019-06-08T14:57:02.178Z,41.52
2019-06-08T14:59:32.326Z,41.81
2019-06-08T15:02:00.776Z,43.05
2019-06-08T15:04:36.310Z,42.81
2019-06-08T15:06:59.662Z,41.72
2019-06-08T15:09:28.186Z,41.61
2019-06-08T15:11:58.258Z,41.49
2019-06-08T15:14:34.848Z,40.35
2019-06-08T15:17:01.234Z,39.42
2019-06-08T15:19:32.409Z,40.75
2019-06-08T15:22:00.098Z,40.61
2019-06-08T15:24:30.656Z,40.23
2019-06-08T15:27:01.624Z,40.36
2019-06-08T15:29:31.338Z,41.04
2019-06-08T15:32:00.654Z,39.87
2019-06-08T15:34:31.407Z,39.99
2019-06-08T15:36:59.312Z,39.72
2019-06-08T15:39:34.176Z,39.74
2019-06-08T15:42:02.788Z,40.84
2019-06-08T15:44:32.426Z,42.18
2019-06-08T15:47:01.530Z,40.55
2019-06-08T15:49:31.892Z,41.19
2019-06-08T15:52:02.233Z,41.56
2019-06-08T15:54:36.195Z,42.87
2019-06-08T15:57:02.294Z,43.75
2019-06-08T15:59:34.127Z,41.26
2019-06-08T16:02:01.154Z,41.41
2019-06-08T16:04:30.249Z,41.25
2019-06-08T16:07:00.351Z,42.27
2019-06-08T16:09:29.926Z,41.24
2019-06-08T16:11:59.596Z,41.64
2019-06-08T16:14:28.842Z,40.67
2019-06-08T16:16:57.413Z,42.50
2019-06-08T16:19:29.680Z,42.83
2019-06-08T16:21:59.167Z,43.20
2019-06-08T16:24:27.813Z,42.15
2019-06-08T16:26:56.234Z,43.77
2019-06-08T16:29:27.082Z,43.28
2019-06-08T16:31:55.480Z,43.17
2019-06-08T16:34:25.181Z,46.92
2019-06-08T16:36:53.719Z,45.97
2019-06-08T16:39:22.197Z,44.15
2019-06-08T16:41:50.727Z,43.86
2019-06-08T16:44:19.302Z,42.96
2019-06-08T16:46:47.766Z,43.09
2019-06-08T16:49:16.245Z,41.11
2019-06-08T16:51:44.699Z,41.96
2019-06-08T16:54:13.164Z,42.54
2019-06-08T16:56:41.690Z,42.78
2019-06-08T16:59:10.153Z,43.94
2019-06-08T17:01:41.025Z,43.13
2019-06-08T17:04:09.555Z,42.82
2019-06-08T17:06:38.027Z,42.86
2019-06-08T17:09:07.644Z,43.10
2019-06-08T17:11:36.118Z,43.93
2019-06-08T17:14:06.107Z,45.01
2019-06-08T17:16:36.357Z,46.13
2019-06-08T17:19:06.449Z,45.35
2019-06-08T17:21:36.255Z,51.10
2019-06-08T17:24:06.353Z,54.51
2019-06-08T17:26:34.925Z,56.81
2019-06-08T17:29:04.450Z,58.52
2019-06-08T17:31:37.139Z,58.67
2019-06-08T17:34:07.460Z,59.55
2019-06-08T17:36:36.514Z,60.10
2019-06-08T17:39:06.834Z,58.67
2019-06-08T17:41:36.092Z,56.94
2019-06-08T17:44:05.165Z,56.43
2019-06-08T17:46:36.527Z,55.47
2019-06-08T17:49:08.016Z,55.15
2019-06-08T17:51:37.293Z,55.26
2019-06-08T17:54:07.519Z,53.86
2019-06-08T17:56:37.145Z,55.26
2019-06-08T17:59:05.940Z,55.98
2019-06-08T18:01:35.845Z,55.83
2019-06-08T18:04:04.437Z,55.49
2019-06-08T18:06:33.641Z,56.43
2019-06-08T18:09:04.751Z,57.07
2019-06-08T18:11:33.927Z,58.46
2019-06-08T18:14:02.474Z,58.57
2019-06-08T18:16:30.925Z,58.57
2019-06-08T18:18:59.413Z,57.48
2019-06-08T18:21:29.523Z,56.98
2019-06-08T18:23:57.987Z,55.53
2019-06-08T18:26:28.094Z,54.79
2019-06-08T18:28:58.194Z,55.46
2019-06-08T18:31:27.642Z,56.16
2019-06-08T18:33:57.924Z,56.97
2019-06-08T18:36:27.620Z,56.30
2019-06-08T18:38:58.152Z,56.23
2019-06-08T18:41:27.165Z,56.72
2019-06-08T18:43:58.175Z,57.59
2019-06-08T18:46:27.187Z,56.80
2019-06-08T18:48:57.854Z,55.86
2019-06-08T18:51:30.444Z,54.88
2019-06-08T18:54:08.493Z,54.67
2019-06-08T18:56:29.101Z,55.05
2019-06-08T18:58:58.326Z,56.02
2019-06-08T19:01:27.552Z,57.39
2019-06-08T19:04:04.973Z,57.62
2019-06-08T19:06:34.232Z,56.96
2019-06-08T19:09:03.227Z,57.35
2019-06-08T19:11:31.706Z,57.82
2019-06-08T19:14:00.633Z,58.62
2019-06-08T19:16:29.082Z,57.14
2019-06-08T19:18:59.242Z,58.20
2019-06-08T19:21:28.358Z,58.86
2019-06-08T19:23:57.007Z,58.54
2019-06-08T19:26:28.396Z,59.74
2019-06-08T19:28:57.848Z,62.41
2019-06-08T19:31:27.623Z,61.10
2019-06-08T19:33:58.113Z,61.24
2019-06-08T19:36:28.394Z,60.02
2019-06-08T19:38:57.695Z,60.13
2019-06-08T19:41:28.335Z,61.04
2019-06-08T19:43:58.429Z,60.56
2019-06-08T19:46:27.155Z,60.60
2019-06-08T19:48:58.977Z,61.18
2019-06-08T19:51:30.856Z,60.73
2019-06-08T19:53:59.341Z,61.58
2019-06-08T19:56:29.469Z,61.81
2019-06-08T19:59:04.078Z,61.93
2019-06-08T20:01:28.435Z,62.20
2019-06-08T20:03:58.004Z,62.71
2019-06-08T20:06:27.842Z,62.72
2019-06-08T20:08:57.583Z,62.73
2019-06-08T20:11:26.126Z,63.74
2019-06-08T20:13:54.567Z,63.91
2019-06-08T20:16:23.101Z,63.65
2019-06-08T20:18:52.913Z,63.45
2019-06-08T20:21:21.486Z,64.75
2019-06-08T20:23:50.930Z,63.96
2019-06-08T20:26:19.535Z,64.67
2019-06-08T20:28:51.283Z,64.30
2019-06-08T20:31:19.238Z,64.62
2019-06-08T20:33:50.277Z,64.69
2019-06-08T20:36:19.363Z,65.48
2019-06-08T20:38:48.942Z,66.46
2019-06-08T20:41:20.396Z,65.81
2019-06-08T20:43:51.710Z,66.45
2019-06-08T20:46:22.323Z,66.88
2019-06-08T20:48:51.985Z,65.79
2019-06-08T20:51:21.092Z,66.16
2019-06-08T20:53:50.850Z,66.89
2019-06-08T20:56:20.848Z,67.16
2019-06-08T20:58:50.967Z,67.32
2019-06-08T21:01:21.174Z,67.32
2019-06-08T21:03:51.235Z,67.55
2019-06-08T21:06:23.667Z,67.57
2019-06-08T21:08:53.233Z,67.09
2019-06-08T21:11:27.155Z,67.48
2019-06-08T21:13:55.632Z,68.16
2019-06-08T21:16:24.094Z,68.29
2019-06-08T21:18:52.986Z,68.84
2019-06-08T21:21:23.965Z,68.30
2019-06-08T21:23:54.251Z,69.28
2019-06-08T21:26:22.976Z,69.26
2019-06-08T21:28:55.542Z,70.20
2019-06-08T21:31:24.607Z,69.18
2019-06-08T21:33:54.563Z,69.70
2019-06-08T21:36:23.335Z,69.42
2019-06-08T21:38:59.401Z,70.07
2019-06-08T21:41:27.883Z,70.16
2019-06-08T21:44:01.881Z,70.35
2019-06-08T21:46:29.214Z,70.42
2019-06-08T21:49:00.296Z,70.55
2019-06-08T21:51:27.955Z,70.46
2019-06-08T21:53:58.808Z,69.81
2019-06-08T21:56:28.078Z,70.52
2019-06-08T21:59:00.942Z,70.45
2019-06-08T22:01:31.996Z,71.15
2019-06-08T22:04:00.465Z,70.35
2019-06-08T22:06:28.949Z,70.00
2019-06-08T22:09:00.841Z,71.09
2019-06-08T22:11:27.626Z,70.80
2019-06-08T22:13:58.956Z,70.37
2019-06-08T22:16:27.498Z,70.00
2019-06-08T22:18:58.233Z,69.77
2019-06-08T22:21:28.094Z,70.69
2019-06-08T22:23:58.175Z,71.05
2019-06-08T22:26:28.248Z,70.36
2019-06-08T22:28:58.368Z,70.20
2019-06-08T22:31:29.949Z,70.62
2019-06-08T22:34:00.321Z,70.12
2019-06-08T22:36:29.899Z,70.04
2019-06-08T22:39:00.657Z,70.46
2019-06-08T22:41:28.677Z,70.71
2019-06-08T22:43:59.090Z,69.93
2019-06-08T22:46:27.388Z,70.45
2019-06-08T22:48:59.513Z,70.61
2019-06-08T22:51:27.661Z,70.25
2019-06-08T22:53:58.929Z,70.40
2019-06-08T22:56:28.328Z,70.13
2019-06-08T22:59:00.552Z,69.79
2019-06-08T23:01:27.835Z,70.08
2019-06-08T23:03:59.355Z,69.94
2019-06-08T23:06:28.065Z,70.06
2019-06-08T23:08:59.754Z,71.51
2019-06-08T23:11:28.409Z,71.64
2019-06-08T23:13:59.587Z,71.43
2019-06-08T23:16:27.343Z,72.18
2019-06-08T23:18:57.664Z,72.00
2019-06-08T23:21:27.508Z,71.83
2019-06-08T23:23:59.340Z,72.40
2019-06-08T23:26:29.550Z,72.71
2019-06-08T23:28:58.133Z,72.58
2019-06-08T23:31:29.068Z,73.12
2019-06-08T23:34:00.282Z,72.88
2019-06-08T23:36:47.148Z,73.20
2019-06-08T23:39:01.093Z,73.51
2019-06-08T23:41:29.625Z,74.19
2019-06-08T23:43:59.530Z,74.59
2019-06-08T23:46:28.086Z,74.60
2019-06-08T23:48:58.895Z,74.93
2019-06-08T23:51:27.516Z,74.96
2019-06-08T23:53:58.304Z,75.10
2019-06-08T23:56:27.765Z,75.40
2019-06-08T23:58:56.420Z,75.50
